Time;durP1;ratioP1;P1;durP2;ratioP2;P2;SDS_P1;SDS_P2;PMS_P1;PMS_P2;Temp;Humidity;BMP_temperature;BMP_pressure;BME280_temperature;BME280_humidity;BME280_pressure;Samples;Min_cycle;Max_cycle;Signal;HPM_P1;HPM_P2
2022/11/20 00:00:24;;;;;;;;;;;2.90;88.90;;;;;;5014424;28;1077;-70
2022/11/20 00:02:52;;;;;;;;;;;3.00;88.90;;;;;;5013715;28;1906;-71
2022/11/20 00:05:20;;;;;;;;;;;2.90;89.20;;;;;;5014684;28;1053;-70
2022/11/20 00:07:49;;;;;;;;;;;2.90;89.50;;;;;;5012520;28;1684;-70
2022/11/20 00:10:17;;;;;;;;;;;2.90;89.40;;;;;;5013837;28;1094;-70
2022/11/20 00:12:44;;;;;;;;;;;2.90;89.20;;;;;;5013575;28;1656;-70
2022/11/20 00:15:12;;;;;;;;;;;3.00;89.20;;;;;;5013878;28;1731;-71
2022/11/20 00:17:40;;;;;;;;;;;3.00;89.50;;;;;;5013531;28;1668;-72
2022/11/20 00:20:08;;;;;;;;;;;2.90;89.40;;;;;;5014162;28;1513;-72
2022/11/20 00:22:36;;;;;;;;;;;2.90;89.80;;;;;;5013507;28;2262;-72
2022/11/20 00:25:05;;;;;;;;;;;3.00;89.40;;;;;;5013923;28;1108;-71
2022/11/20 00:27:33;;;;;;;;;;;3.00;89.40;;;;;;5012756;28;1711;-71
2022/11/20 00:30:00;;;;;;;;;;;2.90;89.60;;;;;;5014521;28;1073;-71
2022/11/20 00:32:28;;;;;;;;;;;2.70;90.30;;;;;;5013398;28;1692;-71
2022/11/20 00:34:56;;;;;;;;;;;2.80;90.30;;;;;;5013327;28;1098;-71
2022/11/20 00:37:23;;;;;;;;;;;2.80;90.10;;;;;;5012632;28;1224;-71
2022/11/20 00:39:51;;;;;;;;;;;2.80;90.30;;;;;;5013072;28;1324;-69
2022/11/20 00:42:20;;;;;;;;;;;2.80;90.40;;;;;;5013302;28;1910;-70
2022/11/20 00:44:47;;;;;;;;;;;2.80;90.20;;;;;;5013599;28;1656;-70
2022/11/20 00:47:15;;;;;;;;;;;2.80;90.20;;;;;;5010451;28;1996;-70
2022/11/20 00:49:42;;;;;;;;;;;2.80;90.20;;;;;;5013539;28;1041;-70
2022/11/20 00:52:10;;;;;;;;;;;2.80;90.30;;;;;;5013108;28;1623;-70
2022/11/20 00:54:38;;;;;;;;;;;2.80;90.20;;;;;;5013428;28;1088;-69
2022/11/20 00:57:05;;;;;;;;;;;2.80;90.30;;;;;;5011706;28;1027;-68
2022/11/20 00:59:34;;;;;;;;;;;2.80;90.20;;;;;;5013639;28;1221;-70
2022/11/20 01:02:02;;;;;;;;;;;2.80;90.40;;;;;;5013116;28;1903;-71
2022/11/20 01:04:29;;;;;;;;;;;2.70;90.50;;;;;;5012254;28;1061;-71
2022/11/20 01:06:57;;;;;;;;;;;2.80;90.50;;;;;;5013212;28;1060;-71
2022/11/20 01:09:24;;;;;;;;;;;2.70;90.80;;;;;;5013333;28;1519;-71
2022/11/20 01:11:52;;;;;;;;;;;2.90;90.80;;;;;;5012769;28;1283;-72
2022/11/20 01:14:20;;;;;;;;;;;2.90;90.70;;;;;;5012721;28;1240;-71
2022/11/20 01:16:50;;;;;;;;;;;2.80;91.00;;;;;;5012480;28;1246;-69
2022/11/20 01:19:19;;;;;;;;;;;2.80;90.90;;;;;;5012870;28;1061;-72
2022/11/20 01:21:51;;;;;;;;;;;2.90;91.10;;;;;;5013080;28;1288;-71
2022/11/20 01:24:19;;;;;;;;;;;2.90;91.40;;;;;;5014265;28;2016;-71
2022/11/20 01:26:48;;;;;;;;;;;2.90;91.20;;;;;;5029454;28;1374;-70
2022/11/20 01:29:16;;;;;;;;;;;2.70;91.70;;;;;;5018577;28;1076;-70
2022/11/20 01:31:45;;;;;;;;;;;2.70;92.20;;;;;;5017172;28;1280;-70
2022/11/20 01:34:14;;;;;;;;;;;2.80;92.10;;;;;;5017410;28;1009;-70
2022/11/20 01:36:42;;;;;;;;;;;2.90;92.30;;;;;;5016875;28;1025;-70
2022/11/20 01:39:11;;;;;;;;;;;2.80;92.30;;;;;;5014359;28;2226;-69
2022/11/20 01:44:39;;;;;;;;;;;2.80;92.70;;;;;;5012294;28;2361;-70
2022/11/20 01:47:08;;;;;;;;;;;2.70;93.50;;;;;;5016548;28;2286;-72
2022/11/20 01:49:39;;;;;;;;;;;2.60;93.30;;;;;;5015708;28;2230;-72
2022/11/20 01:52:11;;;;;;;;;;;2.70;93.10;;;;;;5016085;28;2295;-69
2022/11/20 01:54:41;;;;;;;;;;;2.70;93.30;;;;;;5016161;28;2289;-70
2022/11/20 01:57:11;;;;;;;;;;;2.60;93.50;;;;;;5013865;28;2143;-69
2022/11/20 01:59:40;;;;;;;;;;;2.60;93.50;;;;;;5016130;28;2321;-71
2022/11/20 02:02:08;;;;;;;;;;;2.70;93.40;;;;;;5015500;28;2340;-72
2022/11/20 02:04:37;;;;;;;;;;;2.70;93.60;;;;;;5016919;28;1062;-71
2022/11/20 02:07:05;;;;;;;;;;;2.80;93.50;;;;;;5015883;28;1085;-69
2022/11/20 02:09:33;;;;;;;;;;;2.60;93.30;;;;;;5013656;28;2278;-70
2022/11/20 02:12:01;;;;;;;;;;;2.80;93.40;;;;;;5015733;28;2346;-70
2022/11/20 02:20:17;;;;;;;;;;;2.70;93.20;;;;;;5035888;28;1599;-86
2022/11/20 02:22:48;;;;;;;;;;;2.70;93.10;;;;;;5046039;28;1883;-87
2022/11/20 02:25:18;;;;;;;;;;;2.80;93.40;;;;;;5039513;28;1198;-86
2022/11/20 02:27:46;;;;;;;;;;;2.80;93.20;;;;;;5034161;28;965;-87
2022/11/20 02:30:13;;;;;;;;;;;3.00;92.80;;;;;;5031956;28;1668;-87
2022/11/20 02:32:41;;;;;;;;;;;2.80;92.80;;;;;;5036104;28;1052;-88
2022/11/20 02:35:09;;;;;;;;;;;3.00;92.60;;;;;;5026713;28;1658;-86
2022/11/20 02:37:38;;;;;;;;;;;2.80;93.00;;;;;;5031453;28;1104;-87
2022/11/20 02:40:07;;;;;;;;;;;2.80;93.10;;;;;;5029520;28;1546;-88
2022/11/20 02:42:36;;;;;;;;;;;2.70;93.10;;;;;;5023177;28;1890;-88
2022/11/20 02:45:03;;;;;;;;;;;2.70;92.90;;;;;;5022904;28;1013;-86
2022/11/20 02:47:31;;;;;;;;;;;2.70;92.60;;;;;;5028363;28;1061;-87
2022/11/20 02:49:59;;;;;;;;;;;2.70;92.90;;;;;;5033424;28;1568;-86
2022/11/20 02:52:26;;;;;;;;;;;2.80;92.80;;;;;;5043076;28;1319;-85
2022/11/20 02:54:54;;;;;;;;;;;2.80;93.00;;;;;;5047549;28;1533;-85
2022/11/20 02:57:22;;;;;;;;;;;3.00;92.90;;;;;;5046955;28;1068;-86
2022/11/20 02:59:51;;;;;;;;;;;2.60;92.80;;;;;;5038261;28;1776;-86
2022/11/20 03:02:18;;;;;;;;;;;2.60;93.30;;;;;;5042070;28;1430;-88
2022/11/20 03:04:46;;;;;;;;;;;2.70;92.40;;;;;;5048072;28;1957;-87
2022/11/20 03:07:14;;;;;;;;;;;2.60;92.70;;;;;;5044549;28;2328;-87
2022/11/20 03:09:42;;;;;;;;;;;2.60;92.70;;;;;;5038173;28;1288;-88
2022/11/20 03:12:09;;;;;;;;;;;2.70;92.70;;;;;;5027913;28;989;-88
2022/11/20 03:14:37;;;;;;;;;;;2.70;92.50;;;;;;5027231;28;985;-88
2022/11/20 03:17:06;;;;;;;;;;;2.40;92.60;;;;;;5038345;28;1518;-88
2022/11/20 03:19:34;;;;;;;;;;;2.80;92.80;;;;;;5027556;28;1413;-87
2022/11/20 03:22:02;;;;;;;;;;;2.60;92.80;;;;;;5027930;28;1437;-87
2022/11/20 03:24:29;;;;;;;;;;;2.80;92.70;;;;;;5042727;28;1875;-86
2022/11/20 03:26:57;;;;;;;;;;;2.60;92.50;;;;;;5034867;28;1714;-88
2022/11/20 03:29:25;;;;;;;;;;;2.90;92.50;;;;;;5040526;28;1565;-88
2022/11/20 03:31:53;;;;;;;;;;;2.70;92.50;;;;;;5033637;28;1669;-86
2022/11/20 03:34:22;;;;;;;;;;;2.60;92.90;;;;;;5054424;28;1378;-88
2022/11/20 03:36:49;;;;;;;;;;;2.70;92.80;;;;;;5041258;28;1561;-88
2022/11/20 03:39:17;;;;;;;;;;;2.90;92.50;;;;;;5030614;28;1329;-88
2022/11/20 03:41:45;;;;;;;;;;;2.70;92.30;;;;;;5037178;28;1670;-88
2022/11/20 03:44:13;;;;;;;;;;;2.90;92.30;;;;;;5037070;28;1886;-87
2022/11/20 03:46:40;;;;;;;;;;;2.90;92.50;;;;;;5028081;28;1113;-86
2022/11/20 03:49:08;;;;;;;;;;;2.70;92.40;;;;;;5036207;28;1549;-88
2022/11/20 03:51:37;;;;;;;;;;;2.80;92.40;;;;;;5024498;28;1032;-88
2022/11/20 03:54:05;;;;;;;;;;;2.70;92.60;;;;;;5032539;28;1060;-89
2022/11/20 03:56:34;;;;;;;;;;;2.60;92.70;;;;;;5031349;28;1624;-88
2022/11/20 03:59:02;;;;;;;;;;;2.60;92.80;;;;;;5033062;28;1620;-88
2022/11/20 04:01:32;;;;;;;;;;;2.60;92.20;;;;;;5036675;28;1009;-88
2022/11/20 04:04:00;;;;;;;;;;;2.70;92.40;;;;;;5023972;28;1887;-87
2022/11/20 04:06:28;;;;;;;;;;;2.50;92.20;;;;;;5023420;28;1419;-87
2022/11/20 04:08:58;;;;;;;;;;;2.50;92.80;;;;;;5032403;28;1696;-87
2022/11/20 04:11:26;;;;;;;;;;;2.60;92.80;;;;;;5022194;28;1395;-86
2022/11/20 04:13:55;;;;;;;;;;;2.70;92.70;;;;;;5021401;28;1092;-88
2022/11/20 04:16:23;;;;;;;;;;;2.60;92.80;;;;;;5023217;28;1669;-87
2022/11/20 04:18:52;;;;;;;;;;;2.60;92.70;;;;;;5035076;28;1401;-90
2022/11/20 04:21:20;;;;;;;;;;;2.40;92.90;;;;;;5037924;28;1611;-86
2022/11/20 04:23:47;;;;;;;;;;;2.50;92.60;;;;;;5044676;28;1902;-88
2022/11/20 04:26:16;;;;;;;;;;;2.60;92.40;;;;;;5048427;28;969;-85
2022/11/20 04:28:44;;;;;;;;;;;2.80;92.90;;;;;;5046487;28;1445;-85
2022/11/20 04:31:13;;;;;;;;;;;2.90;92.50;;;;;;5048567;28;1386;-85
2022/11/20 04:33:41;;;;;;;;;;;2.80;92.90;;;;;;5033457;28;1511;-86
2022/11/20 04:36:11;;;;;;;;;;;2.60;93.30;;;;;;5034879;28;1541;-85
2022/11/20 04:38:39;;;;;;;;;;;2.50;93.00;;;;;;5026598;28;1425;-86
2022/11/20 04:41:09;;;;;;;;;;;2.50;92.70;;;;;;5039818;28;1335;-86
2022/11/20 04:43:38;;;;;;;;;;;2.60;93.00;;;;;;5052092;28;1887;-85
2022/11/20 04:46:05;;;;;;;;;;;2.90;92.90;;;;;;5033676;28;1108;-85
2022/11/20 04:48:33;;;;;;;;;;;2.60;92.70;;;;;;5034437;28;1666;-84
2022/11/20 04:51:03;;;;;;;;;;;2.80;92.90;;;;;;5029138;28;1036;-85
2022/11/20 04:53:31;;;;;;;;;;;2.50;93.30;;;;;;5019010;28;1610;-84
2022/11/20 04:56:00;;;;;;;;;;;2.60;93.00;;;;;;5019014;28;1089;-84
2022/11/20 04:58:27;;;;;;;;;;;2.50;93.30;;;;;;5018876;28;1285;-85
2022/11/20 05:01:02;;;;;;;;;;;2.50;93.20;;;;;;5019393;28;1060;-86
2022/11/20 05:03:30;;;;;;;;;;;2.50;93.50;;;;;;5019705;28;1013;-85
2022/11/20 05:06:00;;;;;;;;;;;2.50;93.20;;;;;;5023177;28;1989;-88
2022/11/20 05:08:28;;;;;;;;;;;2.50;93.60;;;;;;5018821;28;1373;-87
2022/11/20 05:11:00;;;;;;;;;;;2.40;93.10;;;;;;5028257;28;2218;-88
2022/11/20 05:13:27;;;;;;;;;;;2.40;93.80;;;;;;5031685;28;1052;-88
2022/11/20 05:15:55;;;;;;;;;;;2.50;93.10;;;;;;5024707;28;1089;-87
2022/11/20 05:18:24;;;;;;;;;;;2.50;93.20;;;;;;5027704;28;1277;-89
2022/11/20 05:20:55;;;;;;;;;;;2.40;93.70;;;;;;5031902;28;1057;-88
2022/11/20 05:23:23;;;;;;;;;;;2.40;93.90;;;;;;5032122;28;1020;-88
2022/11/20 05:25:52;;;;;;;;;;;2.40;93.50;;;;;;5023168;28;1977;-90
2022/11/20 05:28:28;;;;;;;;;;;2.60;93.60;;;;;;5035368;28;1664;-89
2022/11/20 05:30:56;;;;;;;;;;;2.50;93.40;;;;;;5032874;28;1005;-88
2022/11/20 05:33:25;;;;;;;;;;;2.70;93.50;;;;;;5036478;28;1539;-88
2022/11/20 05:35:53;;;;;;;;;;;2.60;93.50;;;;;;5029823;28;1041;-86
2022/11/20 05:38:20;;;;;;;;;;;2.60;93.00;;;;;;5022046;28;1205;-87
2022/11/20 05:40:48;;;;;;;;;;;2.80;93.00;;;;;;5031442;28;1156;-86
2022/11/20 05:43:16;;;;;;;;;;;2.50;93.10;;;;;;5036910;28;985;-88
2022/11/20 05:45:43;;;;;;;;;;;2.50;93.00;;;;;;5032929;28;1914;-87
2022/11/20 05:48:11;;;;;;;;;;;2.50;93.10;;;;;;5033206;28;1252;-88
2022/11/20 05:50:40;;;;;;;;;;;2.60;93.00;;;;;;5033765;28;1089;-86
2022/11/20 05:53:08;;;;;;;;;;;2.60;93.40;;;;;;5034216;28;1137;-85
2022/11/20 05:55:35;;;;;;;;;;;2.60;93.00;;;;;;5031452;28;1491;-86
2022/11/20 05:58:03;;;;;;;;;;;2.50;93.10;;;;;;5020094;28;1616;-86
2022/11/20 06:00:31;;;;;;;;;;;2.40;93.10;;;;;;5020716;28;1235;-88
2022/11/20 06:02:58;;;;;;;;;;;2.50;93.60;;;;;;5024185;28;1905;-88
2022/11/20 06:05:26;;;;;;;;;;;2.30;93.70;;;;;;5026076;28;1984;-86
2022/11/20 06:07:55;;;;;;;;;;;2.20;93.90;;;;;;5029523;28;1704;-85
2022/11/20 06:10:23;;;;;;;;;;;2.10;94.60;;;;;;5028261;28;2631;-86
2022/11/20 06:12:50;;;;;;;;;;;2.20;94.30;;;;;;5023184;28;1540;-87
2022/11/20 06:15:18;;;;;;;;;;;2.20;94.70;;;;;;5035213;28;1021;-86
2022/11/20 06:17:46;;;;;;;;;;;2.20;94.10;;;;;;5053108;28;1390;-86
2022/11/20 06:20:15;;;;;;;;;;;2.20;94.20;;;;;;5040121;28;1296;-84
2022/11/20 06:22:43;;;;;;;;;;;2.10;94.60;;;;;;5025465;28;1575;-88
2022/11/20 06:25:12;;;;;;;;;;;2.30;94.00;;;;;;5024794;28;1989;-88
2022/11/20 06:27:39;;;;;;;;;;;2.30;94.40;;;;;;5025728;28;1693;-88
2022/11/20 06:30:08;;;;;;;;;;;2.30;93.70;;;;;;5023085;28;1531;-87
2022/11/20 06:32:35;;;;;;;;;;;2.20;94.80;;;;;;5024225;28;981;-88
2022/11/20 06:35:03;;;;;;;;;;;2.20;94.00;;;;;;5024894;28;1698;-90
2022/11/20 06:37:31;;;;;;;;;;;2.00;94.30;;;;;;5024515;28;1073;-89
2022/11/20 06:39:59;;;;;;;;;;;1.70;94.00;;;;;;5024328;28;1353;-88
2022/11/20 06:42:29;;;;;;;;;;;1.80;94.60;;;;;;5028876;28;1074;-86
2022/11/20 06:44:56;;;;;;;;;;;1.90;95.50;;;;;;5027441;28;1887;-88
2022/11/20 06:47:24;;;;;;;;;;;2.00;95.00;;;;;;5030356;28;1048;-87
2022/11/20 06:49:52;;;;;;;;;;;1.80;95.20;;;;;;5031088;28;2563;-88
2022/11/20 06:52:19;;;;;;;;;;;1.90;95.00;;;;;;5035465;28;1158;-85
2022/11/20 06:54:47;;;;;;;;;;;2.10;95.00;;;;;;5032109;28;993;-85
2022/11/20 06:57:15;;;;;;;;;;;1.90;94.60;;;;;;5035490;28;1726;-89
2022/11/20 06:59:44;;;;;;;;;;;1.90;94.60;;;;;;5033965;28;1423;-86
2022/11/20 07:02:12;;;;;;;;;;;2.00;94.80;;;;;;5024634;28;1277;-86
2022/11/20 07:04:40;;;;;;;;;;;2.00;94.50;;;;;;5040780;28;1676;-87
2022/11/20 07:07:07;;;;;;;;;;;1.90;94.50;;;;;;5031793;28;1923;-88
2022/11/20 07:09:35;;;;;;;;;;;2.00;94.60;;;;;;5024482;28;1337;-88
2022/11/20 07:12:03;;;;;;;;;;;1.90;94.80;;;;;;5021751;28;1821;-88
2022/11/20 07:14:31;;;;;;;;;;;2.30;95.00;;;;;;5022911;28;1574;-85
2022/11/20 07:17:00;;;;;;;;;;;2.30;94.80;;;;;;5025323;28;2567;-87
2022/11/20 07:19:27;;;;;;;;;;;2.10;95.10;;;;;;5029121;28;2576;-88
2022/11/20 07:21:55;;;;;;;;;;;1.90;95.00;;;;;;5030715;28;1368;-87
2022/11/20 07:24:23;;;;;;;;;;;1.90;95.10;;;;;;5030748;28;1037;-88
2022/11/20 07:26:50;;;;;;;;;;;1.90;95.10;;;;;;5027390;28;1996;-86
2022/11/20 07:29:18;;;;;;;;;;;1.80;95.10;;;;;;5028973;28;1235;-87
2022/11/20 07:31:47;;;;;;;;;;;1.90;95.00;;;;;;5029866;28;1037;-86
2022/11/20 07:34:16;;;;;;;;;;;2.00;94.70;;;;;;5033253;28;2536;-85
2022/11/20 07:36:44;;;;;;;;;;;2.10;95.00;;;;;;5031338;28;1009;-85
2022/11/20 07:39:22;;;;;;;;;;;2.10;94.60;;;;;;5028529;28;1709;-86
2022/11/20 07:41:50;;;;;;;;;;;2.00;94.50;;;;;;5029822;28;1064;-85
2022/11/20 07:44:18;;;;;;;;;;;2.10;94.40;;;;;;5026502;28;1463;-85
2022/11/20 07:46:46;;;;;;;;;;;2.10;94.00;;;;;;5019662;28;1907;-86
2022/11/20 07:49:13;;;;;;;;;;;2.10;93.80;;;;;;5020137;28;1226;-87
2022/11/20 07:51:42;;;;;;;;;;;2.20;94.00;;;;;;5022811;28;985;-87
2022/11/20 07:54:10;;;;;;;;;;;2.20;93.60;;;;;;5029983;28;1630;-87
2022/11/20 07:56:38;;;;;;;;;;;2.20;93.30;;;;;;5033230;28;1281;-86
2022/11/20 07:59:05;;;;;;;;;;;2.40;92.90;;;;;;5038949;28;1260;-86
2022/11/20 08:01:33;;;;;;;;;;;2.40;92.70;;;;;;5031228;28;1136;-85
2022/11/20 08:04:01;;;;;;;;;;;2.40;92.60;;;;;;5032925;28;993;-85
2022/11/20 08:06:29;;;;;;;;;;;2.40;92.60;;;;;;5023756;28;1993;-87
2022/11/20 08:08:58;;;;;;;;;;;2.40;92.40;;;;;;5023185;28;1273;-88
2022/11/20 08:14:14;;;;;;;;;;;2.60;92.80;;;;;;5024804;28;1040;-86
2022/11/20 08:16:42;;;;;;;;;;;2.60;92.30;;;;;;5039867;28;1558;-87
2022/11/20 08:19:10;;;;;;;;;;;2.90;92.50;;;;;;5023488;28;1581;-87
2022/11/20 08:21:38;;;;;;;;;;;2.60;92.70;;;;;;5024295;28;1069;-87
2022/11/20 08:24:08;;;;;;;;;;;2.70;92.20;;;;;;5031039;28;1555;-89
2022/11/20 08:26:36;;;;;;;;;;;2.60;92.60;;;;;;5036558;28;1910;-87
2022/11/20 08:29:04;;;;;;;;;;;2.70;92.70;;;;;;5034142;28;1540;-88
2022/11/20 08:31:32;;;;;;;;;;;2.50;92.80;;;;;;5040517;28;1028;-86
2022/11/20 08:34:00;;;;;;;;;;;2.90;92.60;;;;;;5025108;28;1574;-86
2022/11/20 08:36:34;;;;;;;;;;;2.60;92.30;;;;;;5030330;28;1017;-87
2022/11/20 08:39:03;;;;;;;;;;;2.70;92.40;;;;;;5035104;28;1633;-86
2022/11/20 08:41:32;;;;;;;;;;;2.50;92.90;;;;;;5033665;28;1498;-84
2022/11/20 08:44:22;;;;;;;;;;;2.70;92.60;;;;;;5031695;28;1553;-87
2022/11/20 08:46:50;;;;;;;;;;;2.80;92.90;;;;;;5020598;28;1910;-88
2022/11/20 08:49:18;;;;;;;;;;;2.50;92.90;;;;;;5031281;28;1585;-87
2022/11/20 08:51:51;;;;;;;;;;;2.60;93.20;;;;;;5024105;28;980;-86
2022/11/20 08:54:21;;;;;;;;;;;2.60;93.00;;;;;;5022305;28;1550;-88
2022/11/20 08:56:53;;;;;;;;;;;2.70;93.70;;;;;;5022085;28;1119;-87
2022/11/20 08:59:21;;;;;;;;;;;2.80;93.30;;;;;;5022059;28;1411;-88
2022/11/20 09:02:11;;;;;;;;;;;3.00;93.00;;;;;;5036206;28;1525;-87
2022/11/20 09:04:39;;;;;;;;;;;2.90;93.70;;;;;;5033074;28;1683;-88
2022/11/20 09:07:07;;;;;;;;;;;2.70;94.60;;;;;;5039676;28;1891;-87
2022/11/20 09:09:35;;;;;;;;;;;2.60;94.50;;;;;;5033998;28;1708;-86
2022/11/20 09:12:06;;;;;;;;;;;2.60;95.00;;;;;;5038453;28;949;-87
2022/11/20 09:14:34;;;;;;;;;;;2.50;95.70;;;;;;5040069;28;1085;-86
2022/11/20 09:17:02;;;;;;;;;;;2.50;95.50;;;;;;5030128;28;1586;-86
2022/11/20 09:19:29;;;;;;;;;;;2.80;95.50;;;;;;5022833;28;1201;-87
2022/11/20 09:22:04;;;;;;;;;;;2.80;95.20;;;;;;5023608;28;1681;-87
2022/11/20 09:24:32;;;;;;;;;;;2.90;94.90;;;;;;5025603;28;1539;-88
2022/11/20 09:27:05;;;;;;;;;;;2.70;94.70;;;;;;5042414;28;1906;-85
2022/11/20 09:29:34;;;;;;;;;;;2.80;95.40;;;;;;5057867;28;1590;-86
2022/11/20 09:32:02;;;;;;;;;;;2.70;95.90;;;;;;5052165;28;1053;-85
2022/11/20 09:34:29;;;;;;;;;;;2.90;96.30;;;;;;5039087;28;909;-87
2022/11/20 09:36:57;;;;;;;;;;;2.80;95.20;;;;;;5044074;28;1145;-86
2022/11/20 09:39:31;;;;;;;;;;;2.80;94.70;;;;;;5053558;28;1719;-86
2022/11/20 09:42:25;;;;;;;;;;;2.90;94.60;;;;;;5049943;28;1041;-86
2022/11/20 09:45:02;;;;;;;;;;;2.90;95.10;;;;;;5031332;28;1362;-88
2022/11/20 09:47:34;;;;;;;;;;;2.90;94.90;;;;;;5041650;28;1974;-89
2022/11/20 09:50:07;;;;;;;;;;;2.80;95.50;;;;;;5057596;28;1547;-89
2022/11/20 09:52:43;;;;;;;;;;;3.00;95.00;;;;;;5062078;28;1399;-86
2022/11/20 09:55:13;;;;;;;;;;;3.00;94.60;;;;;;5052152;28;1937;-87
2022/11/20 09:57:42;;;;;;;;;;;3.00;94.90;;;;;;5044974;28;1516;-87
2022/11/20 10:00:15;;;;;;;;;;;2.80;94.40;;;;;;5056553;28;1631;-88
2022/11/20 10:02:47;;;;;;;;;;;2.90;95.00;;;;;;5058238;28;1542;-87
2022/11/20 10:05:19;;;;;;;;;;;3.30;94.30;;;;;;5053123;28;1156;-87
2022/11/20 10:07:54;;;;;;;;;;;3.00;94.10;;;;;;5047553;28;1955;-87
2022/11/20 10:10:29;;;;;;;;;;;3.20;94.10;;;;;;5046628;28;1713;-87
2022/11/20 10:13:03;;;;;;;;;;;3.00;93.50;;;;;;5028991;28;1064;-87
2022/11/20 10:15:34;;;;;;;;;;;3.50;94.00;;;;;;5026747;28;1083;-85
2022/11/20 10:18:17;;;;;;;;;;;3.30;93.60;;;;;;5034400;28;1669;-87
2022/11/20 10:20:52;;;;;;;;;;;3.40;93.60;;;;;;5024916;28;1660;-86
2022/11/20 10:23:42;;;;;;;;;;;3.30;93.70;;;;;;5025034;28;1650;-87
2022/11/20 10:26:17;;;;;;;;;;;3.30;93.20;;;;;;5026919;28;1431;-88
2022/11/20 10:31:39;;;;;;;;;;;3.10;93.20;;;;;;5037757;28;1167;-88
2022/11/20 10:34:13;;;;;;;;;;;3.20;93.50;;;;;;5034277;28;1718;-90
2022/11/20 10:36:56;;;;;;;;;;;3.20;92.30;;;;;;5038383;28;1663;-89
2022/11/20 10:39:28;;;;;;;;;;;3.30;93.00;;;;;;5047930;28;1604;-87
2022/11/20 10:41:57;;;;;;;;;;;3.40;92.30;;;;;;5048194;28;1494;-86
2022/11/20 10:47:14;;;;;;;;;;;3.40;92.40;;;;;;5028370;28;1898;-87
2022/11/20 10:49:50;;;;;;;;;;;3.30;91.90;;;;;;5033215;28;1462;-89
2022/11/20 10:52:24;;;;;;;;;;;3.30;92.10;;;;;;5043605;28;1877;-88
2022/11/20 10:55:01;;;;;;;;;;;3.20;92.00;;;;;;5033458;28;1735;-86
2022/11/20 10:57:39;;;;;;;;;;;3.30;91.70;;;;;;5035854;28;1567;-87
2022/11/20 11:00:09;;;;;;;;;;;2.90;92.30;;;;;;5043625;28;1600;-90
2022/11/20 11:02:42;;;;;;;;;;;3.10;91.60;;;;;;5026314;28;1733;-87
2022/11/20 11:05:15;;;;;;;;;;;3.10;91.60;;;;;;5023503;28;2639;-87
2022/11/20 11:07:45;;;;;;;;;;;3.10;91.70;;;;;;5026525;28;1894;-89
2022/11/20 11:10:15;;;;;;;;;;;3.10;91.70;;;;;;5038763;28;1607;-89
2022/11/20 11:12:44;;;;;;;;;;;3.40;92.10;;;;;;5028062;28;1036;-86
2022/11/20 11:15:13;;;;;;;;;;;3.30;91.60;;;;;;5035811;28;1744;-86
2022/11/20 11:17:47;;;;;;;;;;;3.30;91.50;;;;;;5036297;28;1555;-87
2022/11/20 11:20:19;;;;;;;;;;;3.60;91.60;;;;;;5034243;28;1548;-87
2022/11/20 11:22:49;;;;;;;;;;;3.60;91.00;;;;;;5022522;28;1006;-87
2022/11/20 11:25:24;;;;;;;;;;;3.70;91.10;;;;;;5027939;28;1063;-87
2022/11/20 11:27:54;;;;;;;;;;;3.50;90.90;;;;;;5022499;28;2001;-86
2022/11/20 11:30:23;;;;;;;;;;;3.20;90.40;;;;;;5022791;28;977;-87
2022/11/20 11:32:50;;;;;;;;;;;3.10;90.70;;;;;;5023426;28;2739;-86
2022/11/20 11:35:25;;;;;;;;;;;3.00;91.20;;;;;;5025216;28;1056;-87
2022/11/20 11:38:02;;;;;;;;;;;3.40;90.80;;;;;;5037862;28;1297;-88
2022/11/20 11:40:31;;;;;;;;;;;3.20;91.10;;;;;;5026310;28;1746;-88
2022/11/20 11:43:00;;;;;;;;;;;3.30;90.20;;;;;;5026013;28;1496;-89
2022/11/20 11:45:30;;;;;;;;;;;3.30;90.50;;;;;;5035393;28;1614;-89
2022/11/20 11:47:59;;;;;;;;;;;3.60;90.60;;;;;;5047354;28;1883;-84
2022/11/20 11:50:27;;;;;;;;;;;3.50;90.20;;;;;;5042945;28;1193;-88
2022/11/20 11:53:00;;;;;;;;;;;3.50;89.10;;;;;;5025913;28;2521;-89
2022/11/20 11:55:31;;;;;;;;;;;3.60;90.70;;;;;;5025177;28;1690;-89
2022/11/20 11:58:05;;;;;;;;;;;3.70;89.40;;;;;;5032358;28;1278;-89
2022/11/20 12:00:34;;;;;;;;;;;3.70;90.00;;;;;;5034226;28;1021;-89
2022/11/20 12:03:06;;;;;;;;;;;3.70;89.30;;;;;;5031956;28;1696;-88
2022/11/20 12:05:37;;;;;;;;;;;3.90;89.80;;;;;;5037776;28;1330;-89
2022/11/20 12:08:11;;;;;;;;;;;3.80;89.70;;;;;;5033445;28;1875;-89
2022/11/20 12:10:44;;;;;;;;;;;3.80;88.70;;;;;;5030284;28;2582;-88
2022/11/20 12:13:18;;;;;;;;;;;3.90;88.50;;;;;;5037902;28;2202;-88
2022/11/20 12:15:47;;;;;;;;;;;4.00;88.10;;;;;;5036861;28;1412;-88
2022/11/20 12:18:16;;;;;;;;;;;4.00;87.60;;;;;;5034181;28;1559;-89
2022/11/20 12:20:46;;;;;;;;;;;4.10;88.20;;;;;;5044096;28;1021;-86
2022/11/20 12:23:19;;;;;;;;;;;4.00;88.00;;;;;;5036331;28;1773;-89
2022/11/20 12:25:49;;;;;;;;;;;4.10;86.80;;;;;;5028419;28;1049;-87
2022/11/20 12:28:26;;;;;;;;;;;4.00;86.40;;;;;;5025474;28;2005;-90
2022/11/20 12:30:59;;;;;;;;;;;4.00;87.70;;;;;;5028023;28;1681;-87
2022/11/20 12:33:37;;;;;;;;;;;3.90;87.50;;;;;;5034500;28;997;-88
2022/11/20 12:36:17;;;;;;;;;;;3.90;88.00;;;;;;5027616;28;1017;-89
2022/11/20 12:39:06;;;;;;;;;;;4.10;87.20;;;;;;5034857;28;1590;-87
2022/11/20 12:48:00;;;;;;;;;;;;;;;;;;;;;
2022/11/20 12:50:36;;;;;;;;;;;4.00;86.80;;;;;;4988845;28;1498;-87
2022/11/20 12:53:33;;;;;;;;;;;4.00;87.20;;;;;;5038135;28;1590;-87
2022/11/20 12:59:17;;;;;;;;;;;4.10;87.10;;;;;;4947484;28;1710;-71
2022/11/20 13:01:50;;;;;;;;;;;4.20;86.60;;;;;;4945835;29;1379;-73
2022/11/20 13:04:23;;;;;;;;;;;4.30;86.60;;;;;;4945924;29;1054;-74
2022/11/20 13:06:51;;;;;;;;;;;4.20;86.70;;;;;;4944702;29;1600;-70
2022/11/20 13:09:22;;;;;;;;;;;4.20;87.20;;;;;;4946344;29;1903;-69
2022/11/20 13:11:54;;;;;;;;;;;4.30;87.00;;;;;;4946088;29;1252;-69
2022/11/20 13:14:30;;;;;;;;;;;4.10;86.20;;;;;;4944720;29;1041;-70
2022/11/20 13:17:00;;;;;;;;;;;4.10;86.60;;;;;;4945501;29;1668;-71
2022/11/20 13:19:33;;;;;;;;;;;4.20;86.30;;;;;;4946484;29;1159;-70
2022/11/20 13:22:00;;;;;;;;;;;4.20;87.10;;;;;;4944849;29;1292;-70
2022/11/20 13:24:29;;;;;;;;;;;4.30;86.80;;;;;;4945603;28;1039;-71
2022/11/20 13:27:01;;;;;;;;;;;4.20;87.00;;;;;;4952438;28;1591;-71
2022/11/20 13:29:30;;;;;;;;;;;4.20;86.20;;;;;;4950232;29;1911;-71
2022/11/20 13:32:06;;;;;;;;;;;4.60;86.70;;;;;;4951506;29;1347;-71
2022/11/20 13:34:36;;;;;;;;;;;4.30;86.20;;;;;;4952759;29;1173;-69
2022/11/20 13:37:04;;;;;;;;;;;4.30;86.30;;;;;;4951100;29;1077;-70
2022/11/20 13:39:33;;;;;;;;;;;4.40;85.80;;;;;;4953149;29;1575;-71
2022/11/20 13:42:01;;;;;;;;;;;4.10;86.00;;;;;;4952871;28;1531;-69
2022/11/20 13:44:34;;;;;;;;;;;4.10;86.80;;;;;;4951376;29;1388;-69
2022/11/20 13:47:01;;;;;;;;;;;4.10;86.20;;;;;;4951125;28;1052;-71
2022/11/20 13:49:31;;;;;;;;;;;4.20;86.50;;;;;;4951281;29;1919;-71
2022/11/20 13:52:04;;;;;;;;;;;4.20;86.40;;;;;;4951418;29;1372;-69
2022/11/20 13:54:52;;;;;;;;;;;4.10;87.20;;;;;;4951543;29;1086;-69
2022/11/20 13:57:40;;;;;;;;;;;4.10;87.10;;;;;;4950065;29;1619;-70
2022/11/20 14:00:12;;;;;;;;;;;4.00;86.50;;;;;;4951411;29;1109;-70
2022/11/20 14:02:41;;;;;;;;;;;4.20;86.80;;;;;;4950606;28;1349;-69
2022/11/20 14:05:16;;;;;;;;;;;4.30;86.60;;;;;;4952908;29;1282;-70
2022/11/20 14:07:44;;;;;;;;;;;4.10;86.90;;;;;;4950214;29;753;-69
2022/11/20 14:10:20;;;;;;;;;;;4.20;87.10;;;;;;4951782;29;1990;-69
2022/11/20 14:12:48;;;;;;;;;;;4.10;87.00;;;;;;4950515;29;1540;-70
2022/11/20 14:15:26;;;;;;;;;;;4.20;86.50;;;;;;4951906;29;1078;-68
2022/11/20 14:17:54;;;;;;;;;;;4.20;87.10;;;;;;4949215;28;1348;-68
2022/11/20 14:20:25;;;;;;;;;;;4.00;86.70;;;;;;4950578;29;1550;-68
2022/11/20 14:22:53;;;;;;;;;;;4.00;86.10;;;;;;4954261;29;1335;-67
2022/11/20 14:25:23;;;;;;;;;;;4.00;86.40;;;;;;4951885;29;1117;-69
2022/11/20 14:27:53;;;;;;;;;;;4.00;87.20;;;;;;4958657;28;1596;-70
2022/11/20 14:30:22;;;;;;;;;;;4.00;87.50;;;;;;4961652;29;1969;-69
2022/11/20 14:32:51;;;;;;;;;;;4.00;88.30;;;;;;4952462;28;1229;-69
2022/11/20 14:35:22;;;;;;;;;;;4.00;86.20;;;;;;4952408;28;1026;-69
2022/11/20 14:37:50;;;;;;;;;;;4.00;86.80;;;;;;4952536;29;1131;-69
2022/11/20 14:40:25;;;;;;;;;;;3.90;87.50;;;;;;4949207;29;1153;-69
2022/11/20 14:42:53;;;;;;;;;;;4.00;86.40;;;;;;4949314;29;1262;-70
2022/11/20 14:45:21;;;;;;;;;;;3.70;87.40;;;;;;4948976;29;1075;-69
2022/11/20 14:47:49;;;;;;;;;;;3.80;86.30;;;;;;4951274;29;1082;-70
2022/11/20 14:50:20;;;;;;;;;;;3.80;86.30;;;;;;4948390;29;1910;-70
2022/11/20 14:52:51;;;;;;;;;;;3.70;86.80;;;;;;4949921;29;1988;-69
2022/11/20 14:55:26;;;;;;;;;;;3.50;87.00;;;;;;4948619;29;1029;-68
2022/11/20 14:57:58;;;;;;;;;;;3.50;87.40;;;;;;4952977;28;1226;-70
2022/11/20 15:00:26;;;;;;;;;;;3.50;88.10;;;;;;4951142;29;1030;-69
2022/11/20 15:02:54;;;;;;;;;;;3.70;87.60;;;;;;4947812;29;1302;-69
2022/11/20 15:05:24;;;;;;;;;;;3.60;87.10;;;;;;4947213;29;1682;-69
2022/11/20 15:08:04;;;;;;;;;;;3.70;87.00;;;;;;4947354;29;1078;-69
2022/11/20 15:10:32;;;;;;;;;;;3.60;87.30;;;;;;4947736;29;1895;-69
2022/11/20 15:13:01;;;;;;;;;;;3.70;87.20;;;;;;4946644;29;1285;-69
2022/11/20 15:15:36;;;;;;;;;;;3.70;87.70;;;;;;4947256;29;1082;-69
2022/11/20 15:18:04;;;;;;;;;;;3.80;87.40;;;;;;4945704;28;1671;-69
2022/11/20 15:20:33;;;;;;;;;;;3.80;86.90;;;;;;4946439;29;1090;-69
2022/11/20 15:23:01;;;;;;;;;;;3.80;86.70;;;;;;4946403;29;1383;-68
2022/11/20 15:25:29;;;;;;;;;;;3.90;86.90;;;;;;4946081;29;2087;-69
2022/11/20 15:27:57;;;;;;;;;;;3.80;87.40;;;;;;4947362;29;1189;-69